Coldfoot, Alaska
Current Conditions -  °F | °C
As of 3:58 PM on Sunday 23 Nov 2014 (Local Time) from PAEI Reporting Station
Clear Clear  
Wind Chill: -4°   Ceiling: Unl
Heat Index: -4°   Visibility: 10mi
Dew Point: -9°   Wind: 0mph
Humidity: 80%   Direction: NA
Pressure: 29.59"   Gusts: NA
Location:  64.5037°N, 147.659°W
Report Text: PAEI 240058Z AUTO 00000KT 10SM CLR M20/M23 A2959 RMK AO2 SLP039 T12011228 $
Loading
Personal Weather Stations






























Interactive Weather Map New forecast layout! Learn more

10-Day Weather Forecast

Advertisements
Track Severe Weather on mobile